Time;durP1;ratioP1;P1;durP2;ratioP2;P2;SDS_P1;SDS_P2;PMS_P1;PMS_P2;Temp;Humidity;BMP_temperature;BMP_pressure;BME280_temperature;BME280_humidity;BME280_pressure;Samples;Min_cycle;Max_cycle;Signal;HPM_P1;HPM_P2
2022/01/27 00:05:46;;;;;;;21.00;8.45;;;-1.90;99.90;;;;;;4973859;28;20043;-62
2022/01/27 00:08:18;;;;;;;21.88;8.35;;;-1.90;99.90;;;;;;4973391;28;20043;-62
2022/01/27 00:10:55;;;;;;;18.95;8.32;;;-1.90;99.90;;;;;;4973816;28;20054;-62
2022/01/27 00:13:29;;;;;;;18.60;9.35;;;-1.90;99.90;;;;;;4993134;23;20047;-60
2022/01/27 00:16:11;;;;;;;16.73;7.63;;;-1.90;99.90;;;;;;5032165;28;20072;-60
2022/01/27 00:18:44;;;;;;;17.30;7.38;;;-1.90;99.90;;;;;;5013873;28;20041;-60
2022/01/27 00:21:11;;;;;;;16.13;6.72;;;-1.90;99.90;;;;;;5032235;28;20053;-60
2022/01/27 00:23:40;;;;;;;;;;;-1.90;99.90;;;;;;5027350;28;20430;-60
2022/01/27 00:26:08;;;;;;;18.00;6.90;;;-1.80;99.90;;;;;;5012537;28;20365;-60
2022/01/27 00:28:35;;;;;;;19.13;7.95;;;-1.90;99.90;;;;;;5007277;28;20042;-60
2022/01/27 00:31:01;;;;;;;17.02;7.40;;;-2.00;99.90;;;;;;5001459;28;20100;-60
2022/01/27 00:33:29;;;;;;;15.30;6.70;;;-2.10;99.90;;;;;;4992675;28;20050;-62
2022/01/27 00:35:56;;;;;;;15.35;6.63;;;-2.00;99.90;;;;;;4992675;28;20043;-62
2022/01/27 00:38:23;;;;;;;15.90;6.93;;;-2.10;99.90;;;;;;4992185;28;20042;-62
2022/01/27 00:40:50;;;;;;;11.27;5.63;;;-2.10;99.90;;;;;;4992665;28;20038;-62
2022/01/27 00:43:18;;;;;;;12.20;5.72;;;-2.10;99.90;;;;;;4992419;28;20038;-62
2022/01/27 00:45:45;;;;;;;11.63;5.70;;;-2.20;99.90;;;;;;4992515;28;20490;-59
2022/01/27 00:48:14;;;;;;;11.35;6.13;;;-2.20;99.90;;;;;;4992231;28;20062;-62
2022/01/27 00:50:42;;;;;;;17.20;7.13;;;-2.20;99.90;;;;;;4992363;28;20097;-62
2022/01/27 00:54:16;;;;;;;;;;;-2.20;99.90;;;;;;4992654;28;20383;-62
2022/01/27 00:56:18;;;;;;;22.15;9.63;;;-2.20;99.90;;;;;;4983690;28;19922;-62
2022/01/27 01:01:18;;;;;;;17.67;9.00;;;-2.20;99.90;;;;;;4992256;28;20046;-62
2022/01/27 01:03:48;;;;;;;18.30;9.30;;;-2.20;99.90;;;;;;4991537;28;20502;-59
2022/01/27 01:06:35;;;;;;;22.52;9.70;;;-2.20;99.90;;;;;;4992161;28;20101;-62
2022/01/27 01:32:50;;;;;;;13.32;6.63;;;-2.50;99.90;;;;;;4992057;28;20066;-62
2022/01/27 01:35:27;;;;;;;12.45;6.18;;;-2.50;99.90;;;;;;4992116;28;20042;-62
2022/01/27 01:37:57;;;;;;;16.73;5.30;;;-2.50;99.90;;;;;;4991528;28;20046;-62
2022/01/27 01:40:25;;;;;;;10.93;4.90;;;-2.50;99.90;;;;;;4992028;28;20054;-62
2022/01/27 01:42:52;;;;;;;10.15;4.90;;;-2.50;99.90;;;;;;4991856;28;20592;-62
2022/01/27 01:45:19;;;;;;;;;;;-2.60;99.90;;;;;;4992382;28;20050;-62
2022/01/27 01:47:48;;;;;;;13.70;5.53;;;-2.70;99.90;;;;;;4991715;28;20582;-62
2022/01/27 01:50:15;;;;;;;13.65;6.55;;;-2.70;99.90;;;;;;4991816;28;20048;-62
2022/01/27 01:52:44;;;;;;;16.13;7.32;;;-2.70;99.90;;;;;;4991883;28;20055;-62
2022/01/27 01:55:12;;;;;;;16.10;7.20;;;-2.70;99.90;;;;;;4991577;28;20050;-62
2022/01/27 01:57:39;;;;;;;14.35;5.80;;;-2.70;99.90;;;;;;4991559;28;20391;-62
2022/01/27 02:00:07;;;;;;;;;;;-2.70;99.90;;;;;;4992287;28;20046;-62
2022/01/27 02:02:39;;;;;;;9.10;4.78;;;-2.70;99.90;;;;;;4992050;28;20305;-62
2022/01/27 02:05:06;;;;;;;12.52;4.65;;;-2.70;99.90;;;;;;4991580;28;20085;-62
2022/01/27 02:08:00;;;;;;;12.40;5.82;;;-2.80;99.90;;;;;;4991337;28;20042;-62
2022/01/27 02:17:58;;;;;;;11.82;5.55;;;-2.80;99.90;;;;;;4991408;28;20457;-62
2022/01/27 02:19:09;;;;;;;21.92;10.18;;;-3.40;99.90;;;;;;4994784;28;20137;-62
2022/01/27 02:21:46;;;;;;;27.65;13.15;;;-3.50;99.90;;;;;;4995172;28;20050;-62
2022/01/27 02:24:14;;;;;;;29.73;12.15;;;-3.60;99.90;;;;;;4995001;28;20050;-62
2022/01/27 02:26:42;;;;;;;18.48;8.52;;;-3.60;99.90;;;;;;4994965;28;20418;-62
2022/01/27 02:29:10;;;;;;;14.88;6.80;;;-3.60;99.90;;;;;;4994612;28;20042;-62
2022/01/27 02:31:36;;;;;;;16.27;6.45;;;-3.50;99.90;;;;;;4994990;28;20038;-62
2022/01/27 02:34:05;;;;;;;13.90;5.68;;;-3.50;99.90;;;;;;4994946;28;20046;-62
2022/01/27 02:36:35;;;;;;;16.05;6.75;;;-3.40;99.90;;;;;;4994719;28;20056;-62
2022/01/27 02:39:04;;;;;;;14.25;5.40;;;-3.50;99.90;;;;;;4994437;28;20530;-62
2022/01/27 02:42:00;;;;;;;10.85;4.90;;;-3.50;99.90;;;;;;4995076;28;20458;-62
2022/01/27 02:44:34;;;;;;;9.40;4.30;;;-3.60;99.90;;;;;;4988500;28;20450;-62
2022/01/27 02:47:01;;;;;;;14.18;5.03;;;-3.60;99.90;;;;;;4994404;28;20504;-62
2022/01/27 02:49:28;;;;;;;10.93;5.60;;;-3.60;99.90;;;;;;4994515;28;20089;-62
2022/01/27 02:51:55;;;;;;;;;;;-3.60;99.90;;;;;;4994998;28;20066;-62
2022/01/27 02:54:22;;;;;;;12.25;4.85;;;-3.50;99.90;;;;;;4994381;28;19972;-62
2022/01/27 02:56:49;;;;;;;9.73;5.05;;;-3.60;99.90;;;;;;4994362;28;20034;-62
2022/01/27 02:59:19;;;;;;;8.32;4.18;;;-3.50;99.90;;;;;;4994410;28;20038;-62
2022/01/27 03:01:48;;;;;;;11.02;4.78;;;-3.50;99.90;;;;;;4994337;28;20089;-62
2022/01/27 03:04:17;;;;;;;10.93;5.07;;;-3.50;99.90;;;;;;4994114;28;20097;-62
2022/01/27 03:06:45;;;;;;;11.25;4.78;;;-3.50;99.90;;;;;;4994539;28;20053;-62
2022/01/27 03:09:13;;;;;;;11.00;4.65;;;-3.50;99.90;;;;;;4994099;28;20483;-62
2022/01/27 03:12:13;;;;;;;12.00;5.85;;;-3.50;99.90;;;;;;4994283;28;20042;-62
2022/01/27 03:14:41;;;;;;;13.40;6.65;;;-3.50;99.90;;;;;;4982687;28;20085;-62
2022/01/27 03:17:09;;;;;;;11.23;6.03;;;-3.40;99.90;;;;;;4993871;28;20038;-62
2022/01/27 03:19:37;;;;;;;13.75;6.45;;;-3.40;99.90;;;;;;4994181;28;20100;-62
2022/01/27 03:22:06;;;;;;;12.25;5.78;;;-3.50;99.90;;;;;;4994116;28;20042;-62
2022/01/27 03:24:33;;;;;;;12.05;5.30;;;-3.50;99.90;;;;;;4993869;28;20046;-62
2022/01/27 03:27:01;;;;;;;16.38;6.35;;;-3.60;99.90;;;;;;4992653;28;20136;-62
2022/01/27 03:29:28;;;;;;;17.45;6.85;;;-3.60;99.90;;;;;;4993835;28;20039;-62
2022/01/27 03:31:55;;;;;;;;;;;-3.70;99.90;;;;;;4994258;28;20050;-61
2022/01/27 03:34:22;;;;;;;17.70;7.70;;;-3.80;99.90;;;;;;4993636;28;19961;-62
2022/01/27 03:36:50;;;;;;;16.27;7.18;;;-3.80;99.90;;;;;;4993606;28;20042;-62
2022/01/27 03:39:19;;;;;;;20.95;10.02;;;-3.80;99.90;;;;;;4993625;28;20046;-62
2022/01/27 03:41:50;;;;;;;23.98;10.35;;;-3.80;99.90;;;;;;4993529;28;20038;-62
2022/01/27 03:44:18;;;;;;;26.95;12.50;;;-3.70;99.90;;;;;;4993618;28;20050;-62
2022/01/27 03:46:47;;;;;;;14.70;6.80;;;-3.70;99.90;;;;;;4993604;28;20077;-62
2022/01/27 03:49:14;;;;;;;11.18;6.60;;;-3.80;99.90;;;;;;4993329;28;20070;-62
2022/01/27 03:51:41;;;;;;;14.65;7.13;;;-4.00;99.90;;;;;;4993325;28;20052;-62
2022/01/27 03:54:08;;;;;;;25.13;10.07;;;-4.10;99.90;;;;;;4993259;28;20076;-62
2022/01/27 03:56:35;;;;;;;16.17;7.93;;;-4.20;99.90;;;;;;4993444;28;20046;-62
2022/01/27 03:59:03;;;;;;;17.83;9.77;;;-4.30;99.90;;;;;;4992809;28;20145;-59
2022/01/27 04:01:31;;;;;;;19.35;8.90;;;-4.60;99.90;;;;;;4993302;28;20487;-60
2022/01/27 04:04:00;;;;;;;16.83;8.60;;;-4.80;99.90;;;;;;4993258;28;20077;-60
2022/01/27 04:06:35;;;;;;;38.13;9.57;;;-4.80;99.90;;;;;;4993041;28;20105;-60
2022/01/27 04:09:04;;;;;;;18.92;8.43;;;-4.90;99.90;;;;;;4992665;28;20121;-59
2022/01/27 04:11:31;;;;;;;17.58;8.38;;;-5.00;99.90;;;;;;4993067;28;20066;-62
2022/01/27 04:13:58;;;;;;;20.73;10.10;;;-5.10;99.90;;;;;;4993050;28;20069;-60
2022/01/27 04:16:26;;;;;;;23.02;9.70;;;-5.10;99.90;;;;;;4992905;28;20108;-60
2022/01/27 04:18:53;;;;;;;18.63;10.18;;;-5.00;99.90;;;;;;4992551;28;20065;-60
2022/01/27 04:21:20;;;;;;;24.25;11.43;;;-4.90;99.90;;;;;;4993128;28;20441;-59
2022/01/27 04:23:48;;;;;;;22.45;11.38;;;-4.90;99.90;;;;;;4992857;28;20073;-60
2022/01/27 04:26:19;;;;;;;19.30;9.57;;;-4.80;99.90;;;;;;4992708;28;20043;-60
2022/01/27 04:28:48;;;;;;;30.83;11.30;;;-4.80;99.90;;;;;;4992626;28;20487;-60
2022/01/27 04:31:15;;;;;;;23.17;11.68;;;-4.70;99.90;;;;;;5001741;28;20486;-60
2022/01/27 04:33:42;;;;;;;23.27;11.93;;;-4.60;99.90;;;;;;5011807;28;20038;-59
2022/01/27 04:36:17;;;;;;;26.40;11.85;;;-4.50;99.90;;;;;;5012398;28;20042;-60
2022/01/27 04:38:52;;;;;;;26.15;12.10;;;-4.50;99.90;;;;;;5011224;28;20046;-60
2022/01/27 04:41:34;;;;;;;25.25;12.27;;;-4.40;99.90;;;;;;5011750;28;20514;-60
2022/01/27 04:44:15;;;;;;;24.60;12.45;;;-4.30;99.90;;;;;;5012201;28;20383;-59
2022/01/27 04:46:53;;;;;;;29.42;12.63;;;-4.30;99.90;;;;;;5011656;28;20108;-59
2022/01/27 04:49:20;;;;;;;25.50;12.25;;;-4.20;99.90;;;;;;5012174;28;20433;-60
2022/01/27 04:51:47;;;;;;;28.42;13.77;;;-4.00;99.90;;;;;;5011584;28;20479;-60
2022/01/27 04:54:20;;;;;;;29.73;13.18;;;-3.90;99.90;;;;;;5012018;28;20096;-60
2022/01/27 04:56:48;;;;;;;25.65;12.52;;;-3.90;99.90;;;;;;5011806;28;20046;-60
2022/01/27 04:59:25;;;;;;;25.20;12.88;;;-3.80;99.90;;;;;;5011741;28;20076;-60
2022/01/27 05:02:03;;;;;;;17.80;8.02;;;-3.70;99.90;;;;;;5011637;28;20089;-60
2022/01/27 05:04:34;;;;;;;;;;;-3.90;99.90;;;;;;5012332;28;20042;-60
2022/01/27 05:07:01;;;;;;;17.20;6.15;;;-3.90;99.90;;;;;;5011353;28;20374;-60
2022/01/27 05:09:28;;;;;;;13.30;6.18;;;-3.90;99.90;;;;;;5011682;28;20050;-59
2022/01/27 05:12:00;;;;;;;17.67;6.40;;;-4.00;99.90;;;;;;5011295;28;20089;-59
2022/01/27 05:14:27;;;;;;;14.85;6.45;;;-4.10;99.90;;;;;;5011688;28;20493;-60
2022/01/27 05:16:54;;;;;;;15.02;6.22;;;-4.40;99.90;;;;;;5010985;28;20054;-60
2022/01/27 05:19:21;;;;;;;15.52;5.97;;;-4.50;99.90;;;;;;5011686;28;20494;-60
2022/01/27 05:21:48;;;;;;;10.43;5.57;;;-4.50;99.90;;;;;;5011120;28;20046;-60
2022/01/27 05:24:21;;;;;;;12.70;6.07;;;-4.50;99.90;;;;;;5011296;28;20057;-59
2022/01/27 05:26:48;;;;;;;12.80;5.45;;;-4.50;99.90;;;;;;5010563;28;20053;-60
2022/01/27 05:29:15;;;;;;;11.07;5.20;;;-4.60;99.90;;;;;;5011459;28;20058;-60
2022/01/27 05:31:43;;;;;;;12.43;5.50;;;-4.60;99.90;;;;;;5011531;28;20486;-59
2022/01/27 05:34:11;;;;;;;12.10;6.10;;;-4.60;99.90;;;;;;5011419;28;20038;-59
2022/01/27 05:36:37;;;;;;;;;;;-4.70;99.90;;;;;;5011508;28;20100;-59
2022/01/27 05:39:05;;;;;;;17.33;7.85;;;-4.80;99.90;;;;;;5011544;28;20277;-59
2022/01/27 05:41:32;;;;;;;22.75;8.88;;;-4.80;99.90;;;;;;5011614;28;20088;-59
2022/01/27 05:43:59;;;;;;;17.13;8.38;;;-4.80;99.90;;;;;;5011287;28;20100;-59
2022/01/27 05:46:26;;;;;;;19.92;9.43;;;-4.90;99.90;;;;;;5011113;28;20053;-59
2022/01/27 05:48:53;;;;;;;;;;;-4.80;99.90;;;;;;5010788;28;20406;-59
2022/01/27 05:51:20;;;;;;;23.75;9.52;;;-4.90;99.90;;;;;;5013568;28;19921;-61
2022/01/27 05:53:47;;;;;;;20.48;9.77;;;-4.90;99.90;;;;;;5015069;28;20038;-59
2022/01/27 05:56:14;;;;;;;25.48;11.07;;;-4.90;99.90;;;;;;5015210;28;20129;-59
2022/01/27 05:58:41;;;;;;;26.88;12.98;;;-4.80;99.90;;;;;;5014762;28;20505;-59
2022/01/27 06:01:13;;;;;;;24.90;12.35;;;-4.80;99.90;;;;;;5014501;28;20057;-59
2022/01/27 06:03:40;;;;;;;14.93;6.55;;;-4.60;99.90;;;;;;5014486;28;20049;-59
2022/01/27 06:06:07;;;;;;;15.07;7.10;;;-4.50;99.90;;;;;;5014247;28;20045;-59
2022/01/27 06:08:34;;;;;;;23.58;7.55;;;-4.50;99.90;;;;;;5014122;28;20042;-59
2022/01/27 06:11:01;;;;;;;17.88;7.68;;;-4.50;99.90;;;;;;5014088;28;20133;-60
2022/01/27 06:13:28;;;;;;;22.17;9.32;;;-4.60;99.90;;;;;;5014477;28;20038;-54
2022/01/27 06:15:58;;;;;;;20.35;9.07;;;-4.60;99.90;;;;;;5028861;23;20042;-60
2022/01/27 06:18:25;;;;;;;22.05;8.75;;;-4.60;99.90;;;;;;5011973;28;20042;-62
2022/01/27 06:20:52;;;;;;;23.00;8.35;;;-4.60;99.90;;;;;;5012568;28;20526;-62
2022/01/27 06:23:19;;;;;;;19.05;7.45;;;-4.70;99.90;;;;;;5012803;28;20053;-62
2022/01/27 06:25:46;;;;;;;25.17;8.95;;;-4.70;99.90;;;;;;5011023;28;20042;-62
2022/01/27 06:28:13;;;;;;;19.33;8.52;;;-4.80;99.90;;;;;;5012209;28;20132;-62
2022/01/27 06:30:40;;;;;;;15.35;6.80;;;-4.80;99.90;;;;;;5012482;28;20085;-62
2022/01/27 06:33:11;;;;;;;16.13;7.10;;;-4.90;99.90;;;;;;5013748;28;20112;-62
2022/01/27 06:35:38;;;;;;;20.10;7.72;;;-4.90;99.90;;;;;;5014414;28;20052;-62
2022/01/27 06:38:05;;;;;;;19.80;9.70;;;-4.90;99.90;;;;;;5014029;28;20084;-62
2022/01/27 06:40:32;;;;;;;19.75;8.43;;;-5.00;99.90;;;;;;5014330;28;20073;-62
2022/01/27 06:42:59;;;;;;;;;;;-5.00;99.90;;;;;;5010339;28;20045;-62
2022/01/27 06:45:26;;;;;;;25.02;10.63;;;-5.00;99.90;;;;;;5003233;28;19922;-62
2022/01/27 06:47:53;;;;;;;19.25;9.45;;;-4.80;99.90;;;;;;4994387;28;20093;-61
2022/01/27 06:50:20;;;;;;;21.75;8.93;;;-4.70;99.90;;;;;;4994511;28;20093;-62
2022/01/27 06:52:47;;;;;;;16.08;7.72;;;-4.80;99.90;;;;;;4994447;28;20045;-62
2022/01/27 06:55:17;;;;;;;19.80;8.75;;;-4.90;99.90;;;;;;4994394;28;20108;-62
2022/01/27 06:57:46;;;;;;;22.05;10.25;;;-5.00;99.90;;;;;;4993982;28;20128;-62
2022/01/27 07:00:14;;;;;;;30.10;11.80;;;-5.00;99.90;;;;;;4994360;28;20053;-62
2022/01/27 07:02:40;;;;;;;;;;;-4.80;99.90;;;;;;4993569;28;20077;-62
2022/01/27 07:05:08;;;;;;;38.15;14.90;;;-4.60;99.90;;;;;;4994266;28;19976;-62
2022/01/27 07:07:35;;;;;;;31.13;13.90;;;-4.40;99.90;;;;;;4993907;28;20409;-62
2022/01/27 07:10:02;;;;;;;42.60;18.02;;;-4.20;99.90;;;;;;4993949;28;20557;-62
2022/01/27 07:12:29;;;;;;;;;;;-4.10;99.90;;;;;;4994601;28;20121;-62
2022/01/27 07:14:56;;;;;;;16.63;8.00;;;-4.00;99.90;;;;;;4993846;28;19960;-62
2022/01/27 07:17:23;;;;;;;15.27;7.53;;;-4.10;99.90;;;;;;4993942;28;20045;-62
2022/01/27 07:19:50;;;;;;;;;;;-4.60;99.90;;;;;;4994474;28;20487;-62
2022/01/27 07:22:17;;;;;;;15.80;7.65;;;-4.90;99.90;;;;;;4994081;28;20012;-62
2022/01/27 07:24:44;;;;;;;18.50;7.60;;;-5.00;99.90;;;;;;4993861;28;20108;-62
2022/01/27 07:27:11;;;;;;;19.13;8.18;;;-5.00;99.90;;;;;;4993328;28;20134;-62
2022/01/27 07:29:38;;;;;;;19.17;8.60;;;-5.00;99.90;;;;;;4994050;28;20043;-61
2022/01/27 07:32:05;;;;;;;19.90;9.32;;;-4.90;99.90;;;;;;4994009;28;20085;-62
2022/01/27 07:34:36;;;;;;;20.80;10.13;;;-4.80;99.90;;;;;;4993790;28;20099;-62
2022/01/27 07:37:03;;;;;;;26.20;11.43;;;-4.70;99.90;;;;;;4993033;28;20444;-62
2022/01/27 07:39:30;;;;;;;26.38;11.35;;;-4.50;99.90;;;;;;4993626;28;20038;-62
2022/01/27 07:42:00;;;;;;;24.88;12.02;;;-4.40;99.90;;;;;;4993697;28;20058;-62
2022/01/27 07:44:27;;;;;;;32.13;13.63;;;-4.40;99.90;;;;;;4993835;28;20104;-62
2022/01/27 07:46:59;;;;;;;37.40;15.25;;;-4.30;99.90;;;;;;4976686;28;20125;-62
2022/01/27 07:49:26;;;;;;;43.53;17.02;;;-4.20;99.90;;;;;;4993457;28;20089;-62
2022/01/27 07:51:53;;;;;;;42.78;16.98;;;-4.10;99.90;;;;;;4993350;28;20081;-62
2022/01/27 07:54:20;;;;;;;52.03;18.52;;;-4.10;99.90;;;;;;4993282;28;20047;-62
2022/01/27 07:56:47;;;;;;;58.13;18.60;;;-4.10;99.90;;;;;;4993163;28;20046;-62
2022/01/27 07:59:14;;;;;;;44.35;16.98;;;-4.10;99.90;;;;;;4993107;28;20078;-62
2022/01/27 08:01:41;;;;;;;35.55;13.10;;;-4.10;99.90;;;;;;4993117;28;20034;-62
2022/01/27 08:04:09;;;;;;;20.05;8.07;;;-4.00;99.90;;;;;;4992936;28;20482;-61
2022/01/27 08:06:35;;;;;;;16.50;6.57;;;-4.10;99.90;;;;;;4993124;28;20082;-62
2022/01/27 08:09:02;;;;;;;15.68;8.00;;;-4.10;99.90;;;;;;4992820;28;20046;-62
2022/01/27 08:11:29;;;;;;;14.85;7.35;;;-4.10;99.90;;;;;;4993207;28;20065;-62
2022/01/27 08:13:56;;;;;;;16.50;7.13;;;-4.10;99.90;;;;;;4992494;28;20085;-62
2022/01/27 08:16:23;;;;;;;9.98;5.32;;;-4.30;99.90;;;;;;4993071;28;20089;-62
2022/01/27 08:18:50;;;;;;;11.02;4.78;;;-4.40;99.90;;;;;;4992453;28;20038;-62
2022/01/27 08:21:17;;;;;;;8.65;4.38;;;-4.30;99.90;;;;;;4992928;28;20631;-61
2022/01/27 08:23:45;;;;;;;11.07;4.82;;;-4.30;99.90;;;;;;4992752;28;20069;-62
2022/01/27 08:26:25;;;;;;;13.85;6.00;;;-4.30;99.90;;;;;;4992745;28;20097;-62
2022/01/27 08:29:04;;;;;;;10.05;4.85;;;-4.10;99.90;;;;;;4992308;28;20047;-62
2022/01/27 08:31:41;;;;;;;17.30;6.43;;;-4.00;99.90;;;;;;4992670;28;20093;-62
2022/01/27 08:34:14;;;;;;;30.80;14.30;;;-3.90;99.90;;;;;;4992952;28;20069;-62
2022/01/27 08:36:42;;;;;;;27.98;12.52;;;-3.90;99.90;;;;;;4992784;28;20050;-62
2022/01/27 08:39:08;;;;;;;25.45;11.65;;;-3.90;99.90;;;;;;4992201;28;20064;-62
2022/01/27 08:41:35;;;;;;;25.80;13.65;;;-3.80;99.90;;;;;;4992553;28;20042;-62
2022/01/27 08:44:02;;;;;;;23.52;11.82;;;-3.70;99.90;;;;;;4992685;28;20046;-62
2022/01/27 08:46:29;;;;;;;25.05;11.95;;;-3.60;99.90;;;;;;4992292;28;20494;-62
2022/01/27 08:48:56;;;;;;;31.98;14.70;;;-3.50;99.90;;;;;;4992123;28;20047;-62
2022/01/27 08:51:23;;;;;;;30.77;13.40;;;-3.40;99.90;;;;;;4992326;28;20096;-62
2022/01/27 08:53:50;;;;;;;31.13;13.75;;;-3.20;99.90;;;;;;4992147;28;20049;-63
2022/01/27 08:56:17;;;;;;;29.63;14.13;;;-3.10;99.90;;;;;;4992310;28;20498;-63
2022/01/27 08:58:44;;;;;;;32.17;15.68;;;-2.90;99.90;;;;;;4992121;28;20048;-62
2022/01/27 09:01:11;;;;;;;29.08;14.85;;;-2.90;99.90;;;;;;4992298;28;20046;-62
2022/01/27 09:03:38;;;;;;;;;;;-2.90;99.90;;;;;;4992670;28;20046;-62
2022/01/27 09:06:07;;;;;;;43.65;18.67;;;-2.80;99.90;;;;;;4992315;28;19922;-63
2022/01/27 09:08:55;;;;;;;38.38;17.67;;;-2.70;99.90;;;;;;4991474;28;20604;-62
2022/01/27 09:11:23;;;;;;;36.42;17.15;;;-2.60;99.90;;;;;;4992161;28;20089;-62
2022/01/27 09:14:09;;;;;;;34.78;18.42;;;-2.50;99.90;;;;;;4991919;28;20383;-62
2022/01/27 09:16:36;;;;;;;41.05;18.92;;;-2.50;99.90;;;;;;4992001;28;20043;-62
2022/01/27 09:19:28;;;;;;;41.55;18.33;;;-2.50;99.90;;;;;;4992037;28;20057;-62
2022/01/27 09:21:55;;;;;;;36.88;17.52;;;-2.50;99.90;;;;;;4992067;28;20058;-62
2022/01/27 09:24:28;;;;;;;32.35;16.40;;;-2.50;99.90;;;;;;4991818;28;20105;-62
2022/01/27 09:27:01;;;;;;;34.58;16.65;;;-2.40;99.90;;;;;;4995053;28;20399;-62
2022/01/27 09:29:28;;;;;;;43.50;19.92;;;-2.30;99.90;;;;;;4996186;28;20046;-63
2022/01/27 09:31:56;;;;;;;;;;;-2.40;99.90;;;;;;4996413;28;20525;-62
2022/01/27 09:34:23;;;;;;;37.10;19.27;;;-2.50;99.90;;;;;;4995979;28;20283;-60
2022/01/27 09:36:50;;;;;;;43.53;20.15;;;-2.50;99.90;;;;;;4995746;28;20211;-62
2022/01/27 09:39:19;;;;;;;38.30;19.30;;;-2.50;99.90;;;;;;4995721;28;20042;-62
2022/01/27 09:41:49;;;;;;;40.15;19.63;;;-2.30;99.90;;;;;;4995905;28;20338;-62
2022/01/27 09:44:16;;;;;;;43.13;18.65;;;-2.20;99.90;;;;;;4995658;28;20049;-62
2022/01/27 09:46:46;;;;;;;38.70;19.25;;;-2.20;99.90;;;;;;4995510;28;20046;-62
2022/01/27 09:49:17;;;;;;;39.97;18.67;;;-2.00;99.90;;;;;;4995556;28;20042;-62
2022/01/27 09:51:46;;;;;;;37.67;18.80;;;-2.10;99.90;;;;;;4995556;28;20042;-62
2022/01/27 09:54:16;;;;;;;34.95;17.55;;;-1.90;99.90;;;;;;4995601;28;20050;-62
2022/01/27 09:56:43;;;;;;;33.53;17.63;;;-1.70;99.90;;;;;;4995407;28;20078;-62
2022/01/27 09:59:15;;;;;;;35.35;18.83;;;-1.50;99.90;;;;;;4995323;28;20042;-62
2022/01/27 10:02:02;;;;;;;36.75;17.23;;;-1.30;99.90;;;;;;4995295;28;20069;-62
2022/01/27 10:04:45;;;;;;;31.08;15.85;;;-1.10;99.90;;;;;;4995428;28;20054;-62
2022/01/27 10:07:15;;;;;;;37.78;18.20;;;-1.00;99.90;;;;;;4994815;28;20510;-62
2022/01/27 10:09:57;;;;;;;36.38;19.15;;;-1.20;99.90;;;;;;4995534;28;20054;-63
2022/01/27 10:12:30;;;;;;;40.15;19.67;;;-1.20;99.90;;;;;;4995083;28;20097;-62
2022/01/27 10:14:59;;;;;;;33.13;17.60;;;-1.10;99.90;;;;;;4993911;28;20406;-62
2022/01/27 10:17:26;;;;;;;31.55;15.45;;;-1.00;99.90;;;;;;4994700;28;20051;-62
2022/01/27 10:19:54;;;;;;;19.70;10.52;;;-0.70;99.90;;;;;;4977651;28;20057;-62
2022/01/27 10:22:21;;;;;;;28.92;14.15;;;-0.50;99.90;;;;;;4994875;28;20046;-62
2022/01/27 10:25:00;;;;;;;25.65;12.52;;;-0.20;99.90;;;;;;4995593;28;20449;-63
2022/01/27 10:27:46;;;;;;;30.20;13.75;;;-0.10;99.90;;;;;;4994585;28;20062;-62
2022/01/27 10:32:59;;;;;;;23.90;13.32;;;-0.10;99.90;;;;;;4995021;28;20399;-62
2022/01/27 10:35:28;;;;;;;32.78;15.70;;;-0.10;99.90;;;;;;4994685;28;20042;-62
2022/01/27 10:38:04;;;;;;;37.33;16.55;;;0.00;99.90;;;;;;4994343;28;20113;-62
2022/01/27 10:40:51;;;;;;;32.78;17.15;;;0.10;99.90;;;;;;4994899;28;20050;-62
2022/01/27 10:43:24;;;;;;;28.30;14.20;;;0.00;99.90;;;;;;4994718;28;20093;-62
2022/01/27 10:46:30;;;;;;;19.27;10.52;;;0.10;99.90;;;;;;4994566;28;20402;-62
2022/01/27 10:49:09;;;;;;;30.48;15.05;;;0.20;99.90;;;;;;4994073;28;20058;-62
2022/01/27 10:51:46;;;;;;;37.42;16.02;;;0.40;99.90;;;;;;4994526;28;20046;-62
2022/01/27 10:54:21;;;;;;;27.58;14.60;;;0.50;99.90;;;;;;4994424;28;20038;-62
2022/01/27 10:56:49;;;;;;;31.75;15.57;;;0.60;99.90;;;;;;4994349;28;20046;-62
2022/01/27 10:59:19;;;;;;;37.08;17.15;;;0.70;99.90;;;;;;4994144;28;20076;-62
2022/01/27 11:01:49;;;;;;;25.50;14.43;;;0.70;99.90;;;;;;4994525;28;20046;-62
2022/01/27 11:04:18;;;;;;;30.70;15.68;;;0.60;99.90;;;;;;4994391;28;20506;-62
2022/01/27 11:06:59;;;;;;;25.58;12.48;;;0.70;99.90;;;;;;4994373;28;20046;-62
2022/01/27 11:09:27;;;;;;;21.90;11.38;;;0.70;99.90;;;;;;4994225;28;20101;-62
2022/01/27 11:11:56;;;;;;;24.30;11.55;;;0.70;99.90;;;;;;4994460;28;20074;-63
2022/01/27 11:14:25;;;;;;;28.10;12.48;;;1.00;99.90;;;;;;4993854;28;20042;-62
2022/01/27 11:16:56;;;;;;;21.30;10.90;;;1.10;99.90;;;;;;4993876;28;20073;-62
2022/01/27 11:22:05;;;;;;;18.70;9.95;;;1.20;99.90;;;;;;4994064;28;20089;-62
2022/01/27 11:27:31;;;;;;;18.17;9.48;;;1.30;99.90;;;;;;4993467;28;20034;-62
2022/01/27 11:30:16;;;;;;;18.50;9.10;;;1.40;99.90;;;;;;4993839;28;20050;-62
2022/01/27 11:32:50;;;;;;;17.88;9.52;;;1.60;99.90;;;;;;4993690;28;20129;-63
2022/01/27 11:35:23;;;;;;;20.90;9.55;;;1.80;99.90;;;;;;4993762;28;20050;-63
2022/01/27 11:37:52;;;;;;;20.05;9.00;;;2.00;99.90;;;;;;4993153;28;20042;-62
2022/01/27 11:40:21;;;;;;;22.25;9.02;;;2.10;99.90;;;;;;4993639;28;20077;-62
2022/01/27 11:42:57;;;;;;;13.85;8.32;;;2.10;99.90;;;;;;4993801;28;20042;-62
2022/01/27 11:45:35;;;;;;;11.70;6.03;;;2.20;99.90;;;;;;4993572;28;20042;-62
2022/01/27 11:48:14;;;;;;;19.20;9.70;;;2.10;99.90;;;;;;4992828;28;20399;-62
2022/01/27 11:50:53;;;;;;;24.20;10.25;;;2.00;99.90;;;;;;4993484;28;20097;-62
2022/01/27 11:53:50;;;;;;;21.27;10.70;;;2.00;99.90;;;;;;4977818;28;20046;-62
2022/01/27 11:56:23;;;;;;;24.42;11.07;;;1.80;99.90;;;;;;4993501;28;20474;-62
2022/01/27 11:58:52;;;;;;;21.20;9.95;;;1.80;99.90;;;;;;4993258;28;20049;-62
2022/01/27 12:01:19;;;;;;;21.67;10.63;;;1.90;99.90;;;;;;4993072;28;20073;-62
2022/01/27 12:04:05;;;;;;;24.08;12.00;;;1.80;99.90;;;;;;4993034;28;20062;-62
2022/01/27 12:06:49;;;;;;;22.85;12.32;;;1.90;99.90;;;;;;4993328;28;20043;-62
2022/01/27 12:09:18;;;;;;;23.73;12.57;;;1.90;99.90;;;;;;4993150;28;20081;-61
2022/01/27 12:11:51;;;;;;;23.55;12.23;;;1.90;99.90;;;;;;4992783;28;20046;-61
2022/01/27 12:14:22;;;;;;;22.88;12.63;;;1.90;99.90;;;;;;5007353;23;20026;-61
2022/01/27 12:17:20;;;;;;;26.00;12.90;;;2.00;99.90;;;;;;4992231;28;20089;-61
2022/01/27 12:19:52;;;;;;;24.40;12.30;;;2.00;99.90;;;;;;4992026;28;20050;-61
2022/01/27 12:22:25;;;;;;;21.95;11.65;;;2.00;99.90;;;;;;4992898;28;20054;-60
2022/01/27 12:25:01;;;;;;;23.85;11.80;;;1.90;99.90;;;;;;4985826;28;20054;-61
2022/01/27 12:27:29;;;;;;;19.10;10.40;;;1.90;99.90;;;;;;4972824;28;20570;-61
2022/01/27 12:30:16;;;;;;;18.70;10.88;;;2.20;99.90;;;;;;4973365;28;20047;-60
2022/01/27 12:32:44;;;;;;;17.08;10.05;;;2.20;99.90;;;;;;4972170;28;20342;-61
2022/01/27 12:35:14;;;;;;;23.42;10.80;;;2.30;99.90;;;;;;4963750;28;20495;-60
2022/01/27 12:37:47;;;;;;;21.25;11.30;;;2.40;99.90;;;;;;4953636;29;20050;-60
2022/01/27 12:40:19;;;;;;;20.20;10.73;;;2.50;99.90;;;;;;4954079;29;20125;-61
2022/01/27 12:43:02;;;;;;;21.17;11.38;;;2.60;99.90;;;;;;4953738;29;20109;-61
2022/01/27 12:45:31;;;;;;;18.98;10.52;;;2.60;99.90;;;;;;4953600;28;20062;-60
2022/01/27 12:48:04;;;;;;;23.58;11.13;;;2.50;99.90;;;;;;4953340;29;20106;-60
2022/01/27 12:50:31;;;;;;;18.67;10.60;;;2.60;99.90;;;;;;4953825;29;20495;-61
2022/01/27 12:53:07;;;;;;;19.33;10.95;;;2.60;99.90;;;;;;4953493;29;20055;-60
2022/01/27 12:55:36;;;;;;;24.20;10.77;;;2.50;99.90;;;;;;4953705;28;20549;-60
2022/01/27 12:58:13;;;;;;;20.17;9.98;;;2.50;99.90;;;;;;4953694;29;20102;-60
2022/01/27 13:00:50;;;;;;;20.17;10.13;;;2.50;99.90;;;;;;4952896;28;20058;-61
2022/01/27 13:03:21;;;;;;;18.70;9.50;;;2.50;99.90;;;;;;4953636;29;20047;-61
2022/01/27 13:05:50;;;;;;;16.00;10.02;;;2.50;99.90;;;;;;4953326;28;20095;-60
2022/01/27 13:08:20;;;;;;;21.38;10.75;;;2.50;99.90;;;;;;4952876;29;20082;-60
2022/01/27 13:10:51;;;;;;;19.20;10.75;;;2.50;99.90;;;;;;4953389;29;20097;-61
2022/01/27 13:13:22;;;;;;;18.75;9.90;;;2.50;99.90;;;;;;4953776;29;20047;-61
2022/01/27 13:16:04;;;;;;;21.13;10.13;;;2.60;99.90;;;;;;4953085;28;20047;-60
2022/01/27 13:18:42;;;;;;;18.88;9.73;;;2.70;99.90;;;;;;4952965;29;20047;-60
2022/01/27 13:21:32;;;;;;;22.58;10.52;;;2.70;99.90;;;;;;4953417;29;20062;-61
2022/01/27 13:24:16;;;;;;;16.88;8.90;;;2.80;99.90;;;;;;4953157;28;20095;-60
2022/01/27 13:26:45;;;;;;;15.60;9.60;;;2.80;99.90;;;;;;4953366;29;20118;-60
2022/01/27 13:29:19;;;;;;;21.58;9.68;;;2.90;99.90;;;;;;4953019;29;20090;-60
2022/01/27 13:31:46;;;;;;;18.10;8.38;;;2.90;99.90;;;;;;4953304;29;20043;-61
2022/01/27 13:34:14;;;;;;;21.63;9.13;;;2.90;99.90;;;;;;4953216;28;20048;-60
2022/01/27 13:36:59;;;;;;;18.92;8.80;;;2.80;99.90;;;;;;4953110;29;20403;-60
2022/01/27 13:42:11;;;;;;;27.73;11.88;;;2.80;99.90;;;;;;4953356;29;20051;-61
2022/01/27 13:44:58;;;;;;;26.23;13.57;;;2.90;99.90;;;;;;4952972;28;20051;-60